Time;durP1;ratioP1;P1;durP2;ratioP2;P2;SDS_P1;SDS_P2;PMS_P1;PMS_P2;Temp;Humidity;BMP_temperature;BMP_pressure;BME280_temperature;BME280_humidity;BME280_pressure;Samples;Min_cycle;Max_cycle;Signal;HPM_P1;HPM_P2
2021/11/24 00:00:38;;;;;;;20.15;9.15;;;-0.60;99.90;;;;;;6156727;23;19924;-77
2021/11/24 00:03:04;;;;;;;22.25;9.07;;;-0.60;99.90;;;;;;6157665;23;20470;-77
2021/11/24 00:05:30;;;;;;;31.98;12.50;;;-0.60;99.90;;;;;;6157257;23;20013;-78
2021/11/24 00:07:56;;;;;;;;;;;-0.60;99.90;;;;;;6158860;23;20052;-78
2021/11/24 00:10:22;;;;;;;47.42;15.52;;;-0.60;99.90;;;;;;6157990;23;19912;-78
2021/11/24 00:12:47;;;;;;;;;;;-0.60;99.90;;;;;;6157691;23;20029;-78
2021/11/24 00:15:14;;;;;;;43.60;17.50;;;-0.70;99.90;;;;;;6159223;23;19908;-77
2021/11/24 00:17:40;;;;;;;39.80;15.90;;;-0.70;99.90;;;;;;6159381;23;20340;-79
2021/11/24 00:20:06;;;;;;;;;;;-0.70;99.90;;;;;;6180152;23;20016;-78
2021/11/24 00:22:32;;;;;;;23.40;10.73;;;-0.80;99.90;;;;;;6181379;23;19944;-78
2021/11/24 00:24:58;;;;;;;;;;;-0.80;99.90;;;;;;6168113;23;20028;-78
2021/11/24 00:27:23;;;;;;;24.35;11.20;;;-0.80;99.90;;;;;;6163212;23;20231;-79
2021/11/24 00:29:49;;;;;;;;;;;-0.80;99.90;;;;;;6167077;23;20008;-78
2021/11/24 00:32:16;;;;;;;16.42;7.53;;;-0.80;99.90;;;;;;6168043;23;19983;-78
2021/11/24 00:34:42;;;;;;;19.02;8.98;;;-0.80;99.90;;;;;;6162477;23;20013;-79
2021/11/24 00:37:07;;;;;;;;;;;-0.70;99.90;;;;;;6160989;23;20355;-77
2021/11/24 00:39:33;;;;;;;14.38;7.95;;;-0.70;99.90;;;;;;6159631;23;19920;-78
2021/11/24 00:41:58;;;;;;;;;;;-0.80;99.90;;;;;;6160177;23;20013;-78
2021/11/24 00:44:24;;;;;;;21.17;8.50;;;-0.80;99.90;;;;;;6160832;23;19919;-78
2021/11/24 00:46:50;;;;;;;;;;;-0.70;99.90;;;;;;6162259;23;19998;-78
2021/11/24 00:49:15;;;;;;;22.15;10.13;;;-0.80;99.90;;;;;;6160442;23;19971;-78
2021/11/24 00:51:41;;;;;;;;;;;-0.80;99.90;;;;;;6160500;23;20008;-78
2021/11/24 00:54:07;;;;;;;19.55;8.30;;;-0.80;99.90;;;;;;6161619;23;19904;-78
2021/11/24 00:56:32;;;;;;;;;;;-0.80;99.90;;;;;;6160184;23;20016;-77
2021/11/24 00:58:58;;;;;;;13.88;6.20;;;-0.90;99.90;;;;;;6159427;23;19900;-79
2021/11/24 01:01:24;;;;;;;;;;;-0.90;99.90;;;;;;6159127;23;20009;-77
2021/11/24 01:03:49;;;;;;;16.05;6.75;;;-1.00;99.90;;;;;;6159939;23;19976;-78
2021/11/24 01:06:15;;;;;;;;;;;-1.00;99.90;;;;;;6159854;23;20012;-78
2021/11/24 01:08:41;;;;;;;13.25;5.70;;;-1.00;99.90;;;;;;6159272;23;19908;-78
2021/11/24 01:11:06;;;;;;;;;;;-1.10;99.90;;;;;;6162097;23;20029;-77
2021/11/24 01:13:32;;;;;;;12.82;5.93;;;-1.00;99.90;;;;;;6161589;23;19905;-78
2021/11/24 01:15:58;;;;;;;;;;;-1.00;99.90;;;;;;6157449;23;20420;-78
2021/11/24 01:18:23;;;;;;;19.55;7.82;;;-1.10;99.90;;;;;;6158306;23;20250;-77
2021/11/24 01:20:50;;;;;;;;;;;-1.10;99.90;;;;;;6159668;23;20005;-77
2021/11/24 01:23:17;;;;;;;12.77;5.32;;;-1.00;99.90;;;;;;6158204;23;20265;-78
2021/11/24 01:25:43;;;;;;;18.00;6.47;;;-1.00;99.90;;;;;;6161064;23;20335;-79
2021/11/24 01:28:09;;;;;;;11.88;5.10;;;-1.00;99.90;;;;;;6159340;23;20431;-78
2021/11/24 01:30:35;;;;;;;12.48;5.20;;;-1.00;99.90;;;;;;6161452;23;20343;-78
2021/11/24 01:33:01;;;;;;;;;;;-1.00;99.90;;;;;;6163293;23;20060;-78
2021/11/24 01:35:26;;;;;;;10.82;4.95;;;-1.00;99.90;;;;;;6162249;23;20395;-78
2021/11/24 01:37:52;;;;;;;;;;;-1.00;99.90;;;;;;6162824;23;20001;-78
2021/11/24 01:40:18;;;;;;;10.38;3.83;;;-1.00;99.90;;;;;;6159750;23;19917;-78
2021/11/24 01:42:45;;;;;;;9.90;4.75;;;-1.00;99.90;;;;;;6160473;23;20021;-78
2021/11/24 01:45:15;;;;;;;10.25;4.93;;;-1.00;99.90;;;;;;6157203;23;20084;-77
2021/11/24 01:47:41;;;;;;;14.00;5.30;;;-1.10;99.90;;;;;;6151995;23;20455;-77
2021/11/24 01:50:07;;;;;;;;;;;-1.10;99.90;;;;;;6152682;23;20086;-77
2021/11/24 01:52:32;;;;;;;8.68;3.88;;;-1.20;99.90;;;;;;6150771;23;19904;-77
2021/11/24 01:54:58;;;;;;;;;;;-1.10;99.90;;;;;;6153432;23;20002;-76
2021/11/24 01:57:27;;;;;;;15.93;4.93;;;-0.90;99.90;;;;;;6152092;23;19908;-76
2021/11/24 01:59:54;;;;;;;10.07;4.63;;;-0.80;99.90;;;;;;6158750;23;20451;-78
2021/11/24 02:02:19;;;;;;;11.25;4.47;;;-0.60;99.90;;;;;;6162636;23;20711;-78
2021/11/24 02:04:45;;;;;;;;;;;-0.60;99.90;;;;;;6156869;23;20072;-77
2021/11/24 02:07:10;;;;;;;14.52;6.30;;;-0.50;99.90;;;;;;6157768;23;19905;-77
2021/11/24 02:09:36;;;;;;;;;;;-0.50;99.90;;;;;;6158588;23;20009;-78
2021/11/24 02:12:02;;;;;;;12.07;4.97;;;-0.30;99.90;;;;;;6155937;23;19959;-78
2021/11/24 02:14:28;;;;;;;;;;;-0.40;99.90;;;;;;6157714;23;20010;-77
2021/11/24 02:16:55;;;;;;;9.65;4.20;;;-0.30;99.90;;;;;;6157535;23;19905;-78
2021/11/24 02:19:27;;;;;;;13.10;4.55;;;-0.30;99.90;;;;;;6158447;23;20047;-79
2021/11/24 02:21:54;;;;;;;9.48;4.45;;;-0.20;99.90;;;;;;6158572;23;20001;-77
2021/11/24 02:24:23;;;;;;;12.00;5.13;;;0.00;99.90;;;;;;6156954;23;20035;-78
2021/11/24 02:26:49;;;;;;;13.60;4.82;;;0.10;99.90;;;;;;6155925;23;20471;-78
2021/11/24 02:29:14;;;;;;;;;;;0.20;99.90;;;;;;6156921;23;20002;-77
2021/11/24 02:31:44;;;;;;;10.25;4.80;;;0.30;99.90;;;;;;6153348;23;19905;-77
2021/11/24 02:34:10;;;;;;;12.55;4.50;;;0.40;99.90;;;;;;6156162;23;20005;-78
2021/11/24 02:36:36;;;;;;;;;;;0.40;99.90;;;;;;6158232;23;20070;-77
2021/11/24 02:39:02;;;;;;;11.73;4.38;;;0.40;99.90;;;;;;6153865;23;19912;-77
2021/11/24 02:41:28;;;;;;;14.70;4.97;;;0.30;99.90;;;;;;6156079;23;20001;-77
2021/11/24 02:43:54;;;;;;;13.68;5.45;;;0.30;99.90;;;;;;6155049;23;20040;-78
2021/11/24 02:46:20;;;;;;;;;;;0.30;99.90;;;;;;6156765;23;20029;-77
2021/11/24 02:48:45;;;;;;;10.80;4.35;;;0.20;99.90;;;;;;6153274;23;19968;-77
2021/11/24 02:51:11;;;;;;;;;;;0.20;99.90;;;;;;6154131;23;20052;-77
2021/11/24 02:53:37;;;;;;;10.30;4.22;;;0.20;99.90;;;;;;6155624;23;19958;-77
2021/11/24 02:56:03;;;;;;;;;;;0.20;99.90;;;;;;6154439;23;20758;-78
2021/11/24 02:58:29;;;;;;;12.45;5.10;;;0.20;99.90;;;;;;6152507;23;19932;-77
2021/11/24 03:00:56;;;;;;;;;;;0.20;99.90;;;;;;6153439;23;20013;-77
2021/11/24 03:03:21;;;;;;;9.27;4.45;;;0.10;99.90;;;;;;6153816;23;19991;-77
2021/11/24 03:05:47;;;;;;;;;;;0.10;99.90;;;;;;6153273;23;20029;-77
2021/11/24 03:08:13;;;;;;;11.18;4.15;;;0.10;99.90;;;;;;6154666;23;19901;-77
2021/11/24 03:10:38;;;;;;;;;;;0.10;99.90;;;;;;6154712;23;20045;-77
2021/11/24 03:13:05;;;;;;;10.05;4.07;;;0.00;99.90;;;;;;6153478;23;19905;-77
2021/11/24 03:15:31;;;;;;;12.63;5.00;;;-0.10;99.90;;;;;;6152583;23;20013;-77
2021/11/24 03:17:57;;;;;;;10.30;5.03;;;-0.10;99.90;;;;;;6153294;23;20029;-77
2021/11/24 03:20:25;;;;;;;;;;;-0.10;99.90;;;;;;6155440;23;20017;-77
2021/11/24 03:22:51;;;;;;;10.73;4.95;;;-0.20;99.90;;;;;;6152741;23;20362;-77
2021/11/24 03:25:17;;;;;;;10.30;4.55;;;-0.30;99.90;;;;;;6152151;23;20064;-76
2021/11/24 03:27:43;;;;;;;;;;;-0.40;99.90;;;;;;6154141;23;20010;-77
2021/11/24 03:30:12;;;;;;;9.38;4.50;;;-0.40;99.90;;;;;;6153120;23;20224;-77
2021/11/24 03:32:37;;;;;;;10.35;4.70;;;-0.50;99.90;;;;;;6153695;23;20060;-77
2021/11/24 03:35:03;;;;;;;;;;;-0.70;99.90;;;;;;6155261;23;20005;-77
2021/11/24 03:37:29;;;;;;;11.25;4.80;;;-0.70;99.90;;;;;;6156993;23;19912;-78
2021/11/24 03:39:54;;;;;;;;;;;-0.70;99.90;;;;;;6157355;23;20024;-77
2021/11/24 03:42:20;;;;;;;12.35;5.18;;;-0.70;99.90;;;;;;6155057;23;19919;-77
2021/11/24 03:44:46;;;;;;;;;;;-0.80;99.90;;;;;;6154146;23;20016;-77
2021/11/24 03:47:12;;;;;;;12.23;5.57;;;-0.90;99.90;;;;;;6154458;23;19932;-78
2021/11/24 03:49:37;;;;;;;;;;;-0.90;99.90;;;;;;6154843;23;20013;-78
2021/11/24 03:52:04;;;;;;;9.93;4.18;;;-0.90;99.90;;;;;;6155531;23;19932;-77
2021/11/24 03:54:30;;;;;;;11.05;6.72;;;-1.00;99.90;;;;;;6156163;23;20339;-77
2021/11/24 03:56:56;;;;;;;;;;;-1.00;99.90;;;;;;6154615;23;20020;-77
2021/11/24 03:59:22;;;;;;;13.85;6.05;;;-1.00;99.90;;;;;;6155090;23;19905;-77
2021/11/24 04:01:47;;;;;;;;;;;-1.10;99.90;;;;;;6157090;23;20434;-77
2021/11/24 04:04:13;;;;;;;21.60;9.95;;;-1.10;99.90;;;;;;6155325;23;19916;-77
2021/11/24 04:06:39;;;;;;;;;;;-1.10;99.90;;;;;;6156572;23;20063;-78
2021/11/24 04:09:05;;;;;;;26.65;11.88;;;-1.20;99.90;;;;;;6153347;23;19904;-77
2021/11/24 04:11:30;;;;;;;;;;;-1.20;99.90;;;;;;6154635;23;20049;-76
2021/11/24 04:13:56;;;;;;;24.20;10.30;;;-1.30;99.90;;;;;;6152535;23;19904;-77
2021/11/24 04:16:22;;;;;;;;;;;-1.30;99.90;;;;;;6154018;23;19998;-76
2021/11/24 04:18:48;;;;;;;26.40;12.45;;;-1.40;99.90;;;;;;6152709;23;19927;-78
2021/11/24 04:21:17;;;;;;;;;;;-1.40;99.90;;;;;;6153069;23;20017;-78
2021/11/24 04:23:43;;;;;;;18.42;6.82;;;-1.40;99.90;;;;;;6153301;23;19913;-76
2021/11/24 04:26:08;;;;;;;9.95;5.28;;;-1.40;99.90;;;;;;6150445;23;20504;-77
2021/11/24 04:28:34;;;;;;;;;;;-1.50;99.90;;;;;;6150552;23;20005;-77
2021/11/24 04:31:02;;;;;;;23.77;10.43;;;-1.50;99.90;;;;;;6153386;23;19924;-78
2021/11/24 04:33:28;;;;;;;32.97;14.70;;;-1.60;99.90;;;;;;6156879;23;20068;-78
2021/11/24 04:35:53;;;;;;;;;;;-1.60;99.90;;;;;;6162292;23;20017;-78
2021/11/24 04:38:19;;;;;;;18.00;9.98;;;-1.60;99.90;;;;;;6162942;23;20262;-77
2021/11/24 04:40:45;;;;;;;;;;;-1.60;99.90;;;;;;6159348;23;20014;-78
2021/11/24 04:43:13;;;;;;;16.27;8.10;;;-1.60;99.90;;;;;;6155913;23;20334;-77
2021/11/24 04:45:38;;;;;;;19.52;7.90;;;-1.60;99.90;;;;;;6153897;23;20005;-78
2021/11/24 04:48:04;;;;;;;;;;;-1.60;99.90;;;;;;6156131;23;20006;-78
2021/11/24 04:50:30;;;;;;;19.55;8.00;;;-1.70;99.90;;;;;;6156138;23;19955;-78
2021/11/24 04:52:55;;;;;;;;;;;-1.80;99.90;;;;;;6159787;23;20009;-78
2021/11/24 04:55:21;;;;;;;30.52;11.68;;;-1.80;99.90;;;;;;6161422;23;19904;-78
2021/11/24 04:57:47;;;;;;;;;;;-1.80;99.90;;;;;;6160392;23;20017;-78
2021/11/24 05:00:18;;;;;;;27.60;13.73;;;-1.80;99.90;;;;;;6155975;23;20381;-78
2021/11/24 05:02:45;;;;;;;60.90;25.48;;;-1.80;99.90;;;;;;6153792;23;20014;-77
2021/11/24 05:05:11;;;;;;;82.28;36.45;;;-1.90;99.90;;;;;;6151631;23;20016;-77
2021/11/24 05:07:37;;;;;;;;;;;-1.90;99.90;;;;;;6154729;23;20351;-77
2021/11/24 05:10:04;;;;;;;74.45;31.80;;;-1.90;99.90;;;;;;6156755;23;19936;-78
2021/11/24 05:12:31;;;;;;;73.38;30.35;;;-1.80;99.90;;;;;;6157382;23;20037;-78
2021/11/24 05:14:58;;;;;;;50.80;22.30;;;-1.90;99.90;;;;;;6158232;23;20052;-77
2021/11/24 05:17:26;;;;;;;36.00;17.92;;;-1.80;99.90;;;;;;6154344;23;20077;-77
2021/11/24 05:19:52;;;;;;;47.85;17.63;;;-1.60;99.90;;;;;;6152813;23;20001;-77
2021/11/24 05:22:19;;;;;;;48.78;21.60;;;-1.60;99.90;;;;;;6152702;23;20083;-77
2021/11/24 05:24:45;;;;;;;46.63;20.48;;;-1.60;99.90;;;;;;6156064;23;20010;-77
2021/11/24 05:27:10;;;;;;;;;;;-1.50;99.90;;;;;;6155802;23;20458;-77
2021/11/24 05:29:36;;;;;;;51.75;21.58;;;-1.50;99.90;;;;;;6157378;23;19951;-78
2021/11/24 05:32:02;;;;;;;;;;;-1.60;99.90;;;;;;6158725;23;20039;-78
2021/11/24 05:34:27;;;;;;;36.30;16.58;;;-1.70;99.90;;;;;;6157971;23;19968;-77
2021/11/24 05:36:53;;;;;;;;;;;-1.70;99.90;;;;;;6155799;23;20009;-77
2021/11/24 05:39:19;;;;;;;38.22;15.88;;;-1.70;99.90;;;;;;6152795;23;19919;-77
2021/11/24 05:41:44;;;;;;;;;;;-1.80;99.90;;;;;;6156632;23;20012;-77
2021/11/24 05:44:25;;;;;;;48.05;20.63;;;-1.70;99.90;;;;;;6153362;23;19988;-77
2021/11/24 05:46:58;;;;;;;54.35;24.02;;;-1.80;99.90;;;;;;6160715;23;20012;-78
2021/11/24 05:49:25;;;;;;;28.85;11.88;;;-1.80;99.90;;;;;;6161332;23;20009;-79
2021/11/24 05:51:56;;;;;;;10.10;4.60;;;-1.70;99.90;;;;;;6160726;23;20009;-78
2021/11/24 05:54:22;;;;;;;10.77;5.10;;;-1.50;99.90;;;;;;6162489;23;20002;-78
2021/11/24 05:56:48;;;;;;;17.98;8.40;;;-1.40;99.90;;;;;;6160949;23;20013;-78
2021/11/24 05:59:14;;;;;;;;;;;-1.30;99.90;;;;;;6159329;23;20016;-76
2021/11/24 06:01:40;;;;;;;31.05;13.75;;;-1.10;99.90;;;;;;6161380;23;19905;-79
2021/11/24 06:04:06;;;;;;;;;;;-1.20;99.90;;;;;;6161050;23;20018;-78
2021/11/24 06:06:32;;;;;;;58.58;23.77;;;-1.20;99.90;;;;;;6160576;23;19904;-77
2021/11/24 06:08:58;;;;;;;;;;;-1.20;99.90;;;;;;6161987;23;20006;-78
2021/11/24 06:11:24;;;;;;;22.83;8.85;;;-1.10;99.90;;;;;;6161045;23;19916;-78
2021/11/24 06:13:49;;;;;;;;;;;-0.90;99.90;;;;;;6159986;23;20506;-77
2021/11/24 06:16:15;;;;;;;42.47;19.17;;;-0.90;99.90;;;;;;6157959;23;19907;-77
2021/11/24 06:18:41;;;;;;;;;;;-0.80;99.90;;;;;;6159574;23;20005;-78
2021/11/24 06:21:07;;;;;;;35.67;16.70;;;-0.90;99.90;;;;;;6161161;23;19924;-77
2021/11/24 06:23:38;;;;;;;;;;;-0.90;99.90;;;;;;6162681;23;20340;-77
2021/11/24 06:26:04;;;;;;;34.97;16.92;;;-1.00;99.90;;;;;;6160065;23;19911;-76
2021/11/24 06:28:29;;;;;;;;;;;-0.90;99.90;;;;;;6160908;23;20446;-76
2021/11/24 06:30:55;;;;;;;28.73;13.43;;;-1.00;99.90;;;;;;6160915;23;19924;-77
2021/11/24 06:33:20;;;;;;;;;;;-1.10;99.90;;;;;;6161874;23;20001;-77
2021/11/24 06:35:46;;;;;;;18.75;8.20;;;-1.00;99.90;;;;;;6166467;23;19901;-77
2021/11/24 06:38:12;;;;;;;;;;;-1.00;99.90;;;;;;6162709;23;20056;-78
2021/11/24 06:40:37;;;;;;;18.73;8.88;;;-0.90;99.90;;;;;;6161847;23;19920;-78
2021/11/24 06:43:03;;;;;;;;;;;-0.90;99.90;;;;;;6163338;23;20013;-78
2021/11/24 06:45:29;;;;;;;24.13;11.07;;;-0.80;99.90;;;;;;6163510;23;19900;-77
2021/11/24 06:47:54;;;;;;;;;;;-0.60;99.90;;;;;;6164382;23;20011;-77
2021/11/24 06:50:21;;;;;;;18.08;9.57;;;-0.30;99.90;;;;;;6161565;23;19900;-77
2021/11/24 06:52:46;;;;;;;17.73;7.85;;;0.10;99.90;;;;;;6163312;23;20814;-77
2021/11/24 06:55:12;;;;;;;;;;;0.60;99.90;;;;;;6165538;23;20002;-77
2021/11/24 06:57:39;;;;;;;62.90;30.13;;;1.10;99.90;;;;;;6163950;23;19916;-77
2021/11/24 07:00:05;;;;;;;38.88;18.45;;;1.40;99.90;;;;;;6163178;23;20033;-77
2021/11/24 07:02:31;;;;;;;33.97;16.08;;;1.70;99.90;;;;;;6165059;23;20012;-77
2021/11/24 07:04:57;;;;;;;;;;;2.10;99.90;;;;;;6165552;23;20006;-77
2021/11/24 07:07:22;;;;;;;39.38;21.83;;;2.50;99.90;;;;;;6166505;23;19905;-77
2021/11/24 07:09:48;;;;;;;;;;;2.70;99.90;;;;;;6166342;23;20092;-78
2021/11/24 07:12:13;;;;;;;45.20;20.63;;;2.90;99.90;;;;;;6165018;23;19904;-77
2021/11/24 07:14:39;;;;;;;;;;;3.10;99.90;;;;;;6164771;23;20037;-77
2021/11/24 07:17:05;;;;;;;79.82;31.60;;;3.20;99.90;;;;;;6163956;23;19900;-77
2021/11/24 07:19:30;;;;;;;;;;;3.40;99.90;;;;;;6165622;23;20073;-77
2021/11/24 07:21:56;;;;;;;85.07;32.95;;;3.30;99.90;;;;;;6164371;23;19999;-77
2021/11/24 07:24:22;;;;;;;71.93;29.63;;;3.40;99.90;;;;;;6164020;23;20044;-77
2021/11/24 07:26:48;;;;;;;;;;;3.50;99.90;;;;;;6164247;23;20063;-77
2021/11/24 07:29:15;;;;;;;53.60;24.70;;;3.60;99.90;;;;;;6161897;23;19905;-77
2021/11/24 07:31:41;;;;;;;20.58;11.45;;;3.60;99.90;;;;;;6163344;23;20012;-77
2021/11/24 07:34:06;;;;;;;;;;;3.80;99.90;;;;;;6165410;23;20005;-77
2021/11/24 07:36:32;;;;;;;20.33;10.80;;;3.90;99.90;;;;;;6162325;23;20223;-78
2021/11/24 07:38:58;;;;;;;;;;;4.00;99.90;;;;;;6164233;23;20017;-78
2021/11/24 07:41:24;;;;;;;19.20;11.00;;;4.40;99.90;;;;;;6163686;23;19916;-79
2021/11/24 07:43:49;;;;;;;;;;;4.60;99.90;;;;;;6165529;23;20013;-77
2021/11/24 07:46:16;;;;;;;19.27;10.48;;;4.90;99.90;;;;;;6163391;23;19908;-77
2021/11/24 07:48:42;;;;;;;18.90;10.27;;;5.20;99.90;;;;;;6163883;23;20001;-78
2021/11/24 07:51:09;;;;;;;14.55;8.93;;;5.60;99.20;;;;;;6163793;23;20088;-77
2021/11/24 07:53:35;;;;;;;19.13;9.43;;;5.80;98.30;;;;;;6164620;23;20028;-78
2021/11/24 07:56:01;;;;;;;;;;;6.00;97.30;;;;;;6165624;23;20006;-77
2021/11/24 07:58:26;;;;;;;12.18;7.78;;;6.10;96.50;;;;;;6162054;23;19924;-75
2021/11/24 08:00:52;;;;;;;;;;;6.40;95.60;;;;;;6163426;23;20017;-77
2021/11/24 08:03:17;;;;;;;12.75;7.68;;;6.50;95.10;;;;;;6163844;23;19908;-78
2021/11/24 08:05:43;;;;;;;14.55;7.03;;;6.80;95.00;;;;;;6163777;23;20001;-77
2021/11/24 08:08:09;;;;;;;15.75;6.38;;;7.20;95.30;;;;;;6163263;23;20013;-77
2021/11/24 08:10:34;;;;;;;;;;;7.50;93.50;;;;;;6163427;23;20010;-78
2021/11/24 08:13:00;;;;;;;12.48;6.20;;;7.90;90.80;;;;;;6165243;23;19912;-78
2021/11/24 08:15:26;;;;;;;;;;;8.20;89.50;;;;;;6163522;23;20002;-78
2021/11/24 08:17:51;;;;;;;14.05;7.50;;;8.50;82.20;;;;;;6165634;23;19905;-77
2021/11/24 08:20:17;;;;;;;;;;;8.80;82.30;;;;;;6168209;23;20029;-78
2021/11/24 08:22:43;;;;;;;21.48;8.73;;;9.00;76.80;;;;;;6166542;23;19912;-78
2021/11/24 08:25:08;;;;;;;;;;;9.20;77.10;;;;;;6171787;23;20029;-77
2021/11/24 08:27:36;;;;;;;25.10;14.85;;;9.50;73.30;;;;;;6170483;23;19905;-78
2021/11/24 08:30:03;;;;;;;21.70;13.10;;;9.70;71.20;;;;;;6173154;23;20008;-78
2021/11/24 08:32:29;;;;;;;23.02;14.10;;;10.00;69.60;;;;;;6174254;23;19998;-78
2021/11/24 08:34:55;;;;;;;;;;;10.20;67.10;;;;;;6174303;23;20092;-77
2021/11/24 08:37:20;;;;;;;30.23;15.57;;;10.20;64.70;;;;;;6174622;23;19900;-76
2021/11/24 08:39:48;;;;;;;;;;;10.10;65.50;;;;;;6175206;23;20017;-78
2021/11/24 08:42:14;;;;;;;37.28;18.45;;;10.00;63.90;;;;;;6176943;23;19952;-77
2021/11/24 08:44:41;;;;;;;34.78;20.98;;;9.50;65.50;;;;;;6174199;23;20013;-76
2021/11/24 08:47:06;;;;;;;34.17;19.25;;;9.00;68.50;;;;;;6171364;23;20006;-76
2021/11/24 08:49:32;;;;;;;;;;;8.80;70.30;;;;;;6170046;23;20053;-78
2021/11/24 08:51:58;;;;;;;23.23;14.00;;;8.50;71.00;;;;;;6169391;23;19900;-78
2021/11/24 08:54:23;;;;;;;;;;;8.30;73.50;;;;;;6167707;23;20006;-77
2021/11/24 08:56:49;;;;;;;21.65;12.18;;;8.10;75.30;;;;;;6163831;23;19900;-78
2021/11/24 08:59:15;;;;;;;;;;;7.90;77.30;;;;;;6163533;23;20036;-77
2021/11/24 09:01:41;;;;;;;24.05;13.23;;;7.70;80.30;;;;;;6166795;23;19995;-78
2021/11/24 09:04:06;;;;;;;;;;;7.60;81.00;;;;;;6167468;23;20043;-76
2021/11/24 09:06:32;;;;;;;20.52;13.27;;;7.50;84.30;;;;;;6166225;23;20314;-78
2021/11/24 09:08:58;;;;;;;;;;;7.50;85.90;;;;;;6166811;23;20001;-78
2021/11/24 09:11:24;;;;;;;22.85;13.95;;;7.40;87.60;;;;;;6167043;23;20294;-78
2021/11/24 09:13:49;;;;;;;;;;;7.30;88.70;;;;;;6164300;23;20694;-78
2021/11/24 09:16:15;;;;;;;26.10;15.95;;;7.20;87.50;;;;;;6166604;23;19901;-78
2021/11/24 09:18:41;;;;;;;;;;;7.10;90.00;;;;;;6166176;23;20001;-78
2021/11/24 09:21:06;;;;;;;26.17;16.17;;;7.10;91.80;;;;;;6167563;23;20309;-77
2021/11/24 09:23:32;;;;;;;26.25;16.42;;;7.00;91.90;;;;;;6165165;23;20017;-77
2021/11/24 09:26:03;;;;;;;;;;;7.00;92.60;;;;;;6166053;23;20009;-78
2021/11/24 09:28:35;;;;;;;26.25;15.07;;;7.00;92.90;;;;;;6166989;23;19908;-78
2021/11/24 09:31:02;;;;;;;23.17;14.30;;;7.00;93.10;;;;;;6167249;23;20084;-78
2021/11/24 09:33:28;;;;;;;25.48;15.77;;;6.90;93.50;;;;;;6164338;23;20033;-77
2021/11/24 09:35:53;;;;;;;;;;;6.90;93.50;;;;;;6165662;23;20010;-78
2021/11/24 09:38:20;;;;;;;33.00;16.52;;;6.70;94.30;;;;;;6167518;23;19908;-77
2021/11/24 09:40:50;;;;;;;29.60;15.57;;;6.70;95.00;;;;;;6164907;23;20027;-77
2021/11/24 09:43:17;;;;;;;24.60;15.40;;;6.70;95.60;;;;;;6164134;23;20065;-79
2021/11/24 09:45:46;;;;;;;26.83;17.42;;;6.60;95.90;;;;;;6163836;23;20006;-77
2021/11/24 09:48:16;;;;;;;26.25;17.25;;;6.60;96.90;;;;;;6163986;23;20025;-77
2021/11/24 09:50:43;;;;;;;26.05;14.60;;;6.60;96.70;;;;;;6164148;23;20009;-77
2021/11/24 09:53:12;;;;;;;26.77;14.35;;;6.60;96.30;;;;;;6166297;23;20012;-77
2021/11/24 09:55:39;;;;;;;22.65;14.40;;;6.50;96.50;;;;;;6164360;23;20013;-77
2021/11/24 09:58:06;;;;;;;27.42;15.15;;;6.50;97.00;;;;;;6164400;23;20006;-78
2021/11/24 10:00:32;;;;;;;24.45;14.63;;;6.50;96.00;;;;;;6166093;23;20021;-77
2021/11/24 10:02:59;;;;;;;23.40;14.75;;;6.50;96.20;;;;;;6163910;23;20156;-78
2021/11/24 10:05:26;;;;;;;27.70;14.20;;;6.50;96.60;;;;;;6162922;23;20021;-77
2021/11/24 10:07:52;;;;;;;23.30;14.23;;;6.50;96.50;;;;;;6164726;23;20005;-78
2021/11/24 10:10:18;;;;;;;;;;;6.60;97.10;;;;;;6163931;23;20080;-77
2021/11/24 10:12:44;;;;;;;19.45;12.02;;;6.50;96.80;;;;;;6166335;23;19935;-77
2021/11/24 10:15:11;;;;;;;21.02;13.40;;;6.60;96.80;;;;;;6162060;23;20463;-78
2021/11/24 10:17:37;;;;;;;16.75;10.63;;;6.60;96.40;;;;;;6164527;23;20061;-78
2021/11/24 10:20:08;;;;;;;22.00;11.98;;;6.60;96.10;;;;;;6164671;23;20045;-78
2021/11/24 10:22:35;;;;;;;16.67;9.45;;;6.60;95.60;;;;;;6165104;23;20001;-78
2021/11/24 10:25:05;;;;;;;18.83;10.45;;;6.70;95.00;;;;;;6164688;23;20044;-77
2021/11/24 10:27:47;;;;;;;17.45;10.98;;;6.60;94.20;;;;;;6165800;23;20016;-77
2021/11/24 10:30:23;;;;;;;16.42;10.25;;;6.70;94.70;;;;;;6166062;23;20005;-77
2021/11/24 10:32:49;;;;;;;19.15;11.23;;;6.70;94.70;;;;;;6165443;23;20117;-78
2021/11/24 10:35:27;;;;;;;20.80;11.23;;;6.60;93.70;;;;;;6164002;23;20001;-78
2021/11/24 10:38:16;;;;;;;17.67;11.88;;;6.60;93.80;;;;;;6164925;23;20073;-78
2021/11/24 10:40:46;;;;;;;17.27;11.65;;;6.60;93.20;;;;;;6163862;23;20120;-77
2021/11/24 10:43:17;;;;;;;20.83;12.70;;;6.40;93.30;;;;;;6164964;23;20016;-78
2021/11/24 10:45:56;;;;;;;22.67;12.13;;;6.40;94.00;;;;;;6166507;23;20006;-78
2021/11/24 10:48:29;;;;;;;23.77;11.00;;;6.40;94.30;;;;;;6166009;23;20008;-77
2021/11/24 10:50:56;;;;;;;20.25;12.75;;;6.50;94.90;;;;;;6165135;23;20111;-77
2021/11/24 10:53:22;;;;;;;22.35;11.85;;;6.50;94.50;;;;;;6165253;23;20005;-78
2021/11/24 10:55:49;;;;;;;24.52;11.90;;;6.50;93.90;;;;;;6164786;23;20447;-77
2021/11/24 10:58:16;;;;;;;22.38;12.23;;;6.50;93.90;;;;;;6167560;23;20009;-78
2021/11/24 11:00:47;;;;;;;20.02;10.82;;;6.50;94.40;;;;;;6165589;23;20001;-77
2021/11/24 11:03:13;;;;;;;18.65;11.60;;;6.50;94.70;;;;;;6164181;23;20021;-77
2021/11/24 11:05:44;;;;;;;;;;;6.60;93.90;;;;;;6165840;23;20012;-77
2021/11/24 11:08:12;;;;;;;19.60;13.00;;;6.60;93.60;;;;;;6166863;23;19911;-78
2021/11/24 11:10:40;;;;;;;19.08;11.90;;;6.60;94.20;;;;;;6165391;23;20014;-78
2021/11/24 11:13:06;;;;;;;21.15;11.65;;;6.60;94.20;;;;;;6166216;23;19998;-78
2021/11/24 11:15:33;;;;;;;25.60;13.05;;;6.60;93.80;;;;;;6166183;23;20069;-78
2021/11/24 11:18:04;;;;;;;19.20;11.35;;;6.70;94.00;;;;;;6166967;23;20001;-77
2021/11/24 11:20:50;;;;;;;26.15;11.95;;;6.70;94.00;;;;;;6167022;23;20005;-77
2021/11/24 11:23:28;;;;;;;18.50;12.43;;;6.70;92.10;;;;;;6166325;23;20459;-77
2021/11/24 11:25:57;;;;;;;18.83;11.20;;;6.70;92.40;;;;;;6166715;23;20009;-78
2021/11/24 11:28:25;;;;;;;18.33;11.27;;;6.70;92.60;;;;;;6166966;23;20025;-78
2021/11/24 11:30:53;;;;;;;18.65;10.95;;;6.70;93.40;;;;;;6165260;23;19997;-77
2021/11/24 11:33:23;;;;;;;19.48;12.18;;;6.70;93.00;;;;;;6165947;23;20013;-78
2021/11/24 11:35:49;;;;;;;15.45;10.90;;;6.70;92.70;;;;;;6166068;23;20029;-77
2021/11/24 11:38:16;;;;;;;;;;;6.70;92.60;;;;;;6167813;23;20029;-77
2021/11/24 11:40:43;;;;;;;14.57;9.40;;;6.70;92.00;;;;;;6166932;23;19935;-78
2021/11/24 11:43:09;;;;;;;15.18;9.32;;;6.60;92.20;;;;;;6165948;23;20052;-76
2021/11/24 11:45:38;;;;;;;12.00;8.88;;;6.60;92.40;;;;;;6166406;23;20005;-78
2021/11/24 11:48:06;;;;;;;15.80;9.77;;;6.60;91.30;;;;;;6166285;23;20045;-78
2021/11/24 11:50:37;;;;;;;19.52;10.38;;;6.50;92.10;;;;;;6165169;23;20009;-78
2021/11/24 11:53:24;;;;;;;14.68;9.60;;;6.50;91.30;;;;;;6165941;23;20005;-78
2021/11/24 11:56:07;;;;;;;15.82;9.73;;;6.50;91.50;;;;;;6164916;23;20514;-77
2021/11/24 11:58:34;;;;;;;18.55;9.55;;;6.50;91.80;;;;;;6163723;23;20096;-78
2021/11/24 12:01:16;;;;;;;16.92;10.85;;;6.40;91.70;;;;;;6164525;23;20005;-79
2021/11/24 12:04:14;;;;;;;15.27;8.55;;;6.40;91.90;;;;;;6165302;23;20032;-78
2021/11/24 12:06:53;;;;;;;15.10;8.90;;;6.40;92.00;;;;;;6164056;23;20005;-78
2021/11/24 12:09:20;;;;;;;12.23;8.38;;;6.50;90.40;;;;;;6166851;23;20021;-78
2021/11/24 12:12:10;;;;;;;16.48;9.35;;;6.50;90.00;;;;;;6166884;23;20044;-78
2021/11/24 12:14:48;;;;;;;18.42;10.18;;;6.50;91.30;;;;;;6166825;23;20006;-78
2021/11/24 12:17:29;;;;;;;20.38;9.45;;;6.40;90.50;;;;;;6166407;23;20072;-77
2021/11/24 12:20:01;;;;;;;16.10;9.57;;;6.40;91.00;;;;;;6167542;23;20516;-78
2021/11/24 12:22:45;;;;;;;17.58;8.38;;;6.50;91.30;;;;;;6169006;23;20057;-78
2021/11/24 12:25:21;;;;;;;27.85;13.68;;;6.50;91.00;;;;;;6166140;23;20013;-77
2021/11/24 12:27:50;;;;;;;27.38;12.10;;;6.70;89.30;;;;;;6167341;23;20005;-79
2021/11/24 12:31:00;;;;;;;20.65;12.18;;;6.60;88.90;;;;;;6169010;23;20006;-78
2021/11/24 12:33:30;;;;;;;17.30;10.20;;;6.60;87.10;;;;;;6167890;23;20010;-78
2021/11/24 12:36:00;;;;;;;19.48;10.65;;;6.60;87.00;;;;;;6167142;23;20058;-77
2021/11/24 12:38:32;;;;;;;19.67;11.88;;;6.60;88.50;;;;;;6166838;23;20080;-78
2021/11/24 12:41:00;;;;;;;17.65;10.77;;;6.50;88.40;;;;;;6165433;23;20116;-79
2021/11/24 12:43:28;;;;;;;22.08;9.80;;;6.50;90.00;;;;;;6168328;23;20040;-77
2021/11/24 12:46:00;;;;;;;16.73;10.07;;;6.40;90.60;;;;;;6167418;23;20009;-78
2021/11/24 12:48:43;;;;;;;15.38;10.63;;;6.40;90.90;;;;;;6169933;23;20328;-78
2021/11/24 12:51:09;;;;;;;15.55;10.10;;;6.40;90.90;;;;;;6165912;23;20013;-77
2021/11/24 12:53:37;;;;;;;17.45;10.45;;;6.50;90.60;;;;;;6168251;23;20398;-77
2021/11/24 12:56:12;;;;;;;19.20;11.13;;;6.40;90.10;;;;;;6167311;23;20088;-78
2021/11/24 12:58:39;;;;;;;19.25;12.05;;;6.40;90.70;;;;;;6167483;23;20029;-78
2021/11/24 13:01:23;;;;;;;18.77;12.52;;;6.30;91.80;;;;;;6166316;23;20009;-78
2021/11/24 13:03:58;;;;;;;19.60;11.55;;;6.30;91.90;;;;;;6166387;23;20042;-78
2021/11/24 13:06:24;;;;;;;18.38;11.65;;;6.30;91.30;;;;;;6166219;23;20025;-77